Virtual Norwegian is not affiliated with Norwegian Air Shuttle in any way.
If you are looking for the real "Norwegian", or you wish to book Norwegian flights, please visit Norwegian.com


We use cookies to ensure you get the best experience on our website.   ACCEPT

GCXO - TFN - Tenerife (Tenerife Norte)

General Info Alternate Airport
ICAO: GCXO Elevation: 2073 ft ICAO: GCTS
IATA: TFN Country: Spain IATA: TFS
City: Tenerife Charts: Log in to view charts City: Tenerife South
Name: Tenerife Norte Hub: No Name Reina Sofia
General Info
ICAO: GCXO
IATA: TFN
City: Tenerife
Name: Tenerife Norte
Elevation: 2073 ft
Country: Spain
Charts: Log in to view charts
Hub: No
 
Alternate Airport
ICAO: GCTS
IATA: TFS
City: Tenerife South
Name: Reina Sofia

Weather
230100Z AUTO 30010KT 9999 FEW017 SCT023 BKN036 16/15 Q1020
Weather
230100Z AUTO 30010KT 9999 FEW017 SCT023 BKN036 16/15 Q1020

Runway Info
12
Length ILS/LOC Course
3171 m 108.70 117
30
Length ILS/LOC Course
3171 m 110.30 297

NOTAMs
NOTAMs currently unavailable.
NOTAMs
NOTAMs currently unavailable

Route map
Airport
Airport (hub)